Mendon - 24 Hour Table
Date & TimeSolar
Radiation
(W/m²)
Wind
Speed
(mph)
Wind
Direction
(degrees)
Air
Temperature
(°F)
Relative
Humidity
(%)
Precipitation
(inches)
2021/09/24 07:00 10 0.0 313 41.2 87 0.00
2021/09/24 06:00 2 0.0 248 41.9 86 0.00
2021/09/24 05:00 2 0.0 313 42.4 85 0.00
2021/09/24 04:00 2 0.0 315 43.7 82 0.00
2021/09/24 03:00 2 0.0 315 44.6 81 0.00
2021/09/24 02:00 2 0.0 314 46.3 77 0.00
2021/09/24 01:00 2 0.0 323 48.7 72 0.00
2021/09/24 00:00 3 0.0 287 51.6 68 0.00
2021/09/23 23:00 3 0.0 293 54.4 64 0.00
2021/09/23 22:00 3 0.1 336 60.5 50 0.00
2021/09/23 21:00 3 0.0 245 55.4 44 0.00
2021/09/23 20:00 3 0.0 326 59.3 61 0.00
2021/09/23 19:00 6 0.0 338 62.7 42 0.00
2021/09/23 18:00 26 0.0 197 63.9 51 0.00
2021/09/23 17:00 58 0.0 177 67.8 42 0.00
2021/09/23 16:00 94 0.0 175 69.4 48 0.00
2021/09/23 15:00 210 0.1 176 71.7 49 0.00
2021/09/23 14:00 371 0.0 179 70.9 36 0.00
2021/09/23 13:00 765 0.0 323 70.4 31 0.00
2021/09/23 12:00 840 0.2 344 66.5 37 0.00
2021/09/23 11:00 758 0.0 356 61.3 46 0.01
2021/09/23 10:00 496 0.0 354 51.4 62 0.00
2021/09/23 09:00 59 0.0 249 47.5 95 0.00
2021/09/23 08:00 58 0.0 161 46.1 71 0.00